Aeroporto :
LOGIN :

Iscrizione | Disclaimer

   EN    FR    IT 

 










Sommario :    VFR   VFR Marginale   IFR   IFR Intensivo   IFR Molto Intensivo
Visibilità : 
Base nubi : 
>= 8 km
>= 3000ft
5 / 8 km
1000 / 3000 ft
1500m / 5 km
500 / 1000 ft
800 / 1500m
200 / 500 ft
< 800m
< 200 ft
Simboli :   Temporali  Nebbia  Neve Forte  Precipitazioni Forti  Vento > 20 kt
SIGMETs :   Varie  Temporali  Ghiacco  Turbolenza  Onda orograficha  Ceneri Vulcaniche






- Altitudine del aeroporto : 74 ft
- Codice IATA : LRH


LFBH - La Rochelle Ile de Ré

ULTIMO METAR :
  • 191500Z AUTO 16009KT CAVOK 09/01 Q1016 NOSIG

METARs OBSOLETI :
  • 191430Z AUTO 16008KT CAVOK 09/02 Q1016 NOSIG
  • 191400Z AUTO 17008KT 9999 FEW043 10/02 Q1017 NOSIG
  • 191330Z AUTO 17009KT 150V210 9999 OVC043 10/02 Q1017 NOSIG
  • 191300Z AUTO 17010KT 140V200 9999 OVC042 10/03 Q1017 NOSIG
  • 191230Z AUTO 16011KT 9999 FEW044 10/04 Q1017 NOSIG

TAF TAF LFBH
Valido dal 19 a 12 ore il 20 a 12 ore UTC


191100Z 1912/2012 12008KT 9999 BKN040
PROB40 1919/2011 3000 BR
PROB40
TEMPO 1923/2010 0500 FG VV///
TEMPO 2011/2012 BKN010
ATIS : +33 5 46 00 13 92



MetMap, La meteo Aeronautica in un colpo d'occhio ! - Copyright ORBIFLY Dicembre 2007 - Disclaimer

ORBIFLY MET'MAP TEAM :

Programmazione e sviluppo : Alexandra Zaïnal
Concezione e sviluppo : Baudouin d'Aumeries
Co-Programmazione e sviluppo : Marc-Olivier Méhu
Supporto tecnico e logistico : Manuel Goepfert
Aiuto per la traduzione : Arnaldo La Scala

Contatto : metmap@orbifly.com




FONTI E CREDITI :

   NOAA